Temp: 5.3°C   Baro: 1014.1mb
  Wind: 0.9mph   Dir: ESE (119°)
  Rain: 1.2mm (0.0mm/hr)
  Solar: 0W/m2  Hum: 94%
 
Bath Spa Weather Station Historical Data
Daily Summary for October 25, 2020 Units:  Metric    English   Both
Daily Weekly Monthly Yearly Custom
  High: Low: Average:
Temperature: 13.2 °C 6.7 °C 9.7 °C
Dew Point: 8.8 °C 5.3 °C 7.1 °C
Humidity: 91% 68% 81%
Wind Speed: 16.9km/h 0km/h 6km/h
Wind Gust: 27.4km/h - -
Wind- - SW
Pressure: 995.5 hPa 993.8 hPa -
Precipitation: 0 mm    
Historical Graphs
 
 
Tabular Data for October 25, 2020
Time Temperature Dew Point Pressure Wind Wind Speed Wind Gust Humidity Rainfall Rate (Hourly) solar
00:04 9.7 °C 8.8 °C 994.8 hPa SW 8.4 km/h 16.1 km/h 91% 0 mm 0 W/m2
00:09 9.7 °C 8.7 °C 994.8 hPa WSW 10.5 km/h 20.9 km/h 90.8% 0 mm 0 W/m2
00:14 9.6 °C 8.6 °C 994.8 hPa WSW 7.4 km/h 17.7 km/h 90.4% 0 mm 0 W/m2
00:19 9.6 °C 8.5 °C 994.8 hPa WSW 9.5 km/h 24.1 km/h 90% 0 mm 0 W/m2
00:24 9.6 °C 8.5 °C 994.8 hPa WSW 9.3 km/h 16.1 km/h 90% 0 mm 0 W/m2
00:29 9.6 °C 8.5 °C 994.8 hPa SW 9 km/h 16.1 km/h 90% 0 mm 0 W/m2
00:33 9.5 °C 8.4 °C 994.8 hPa SW 6.3 km/h 16.1 km/h 90% 0 mm 0 W/m2
00:39 9.4 °C 8.3 °C 994.8 hPa SW 8.4 km/h 16.1 km/h 89.6% 0 mm 0 W/m2
00:44 9.4 °C 8.2 °C 994.8 hPa SW 9.7 km/h 17.7 km/h 89% 0 mm 0 W/m2
00:49 9.3 °C 8.1 °C 994.8 hPa SSW 10 km/h 19.3 km/h 89% 0 mm 0 W/m2
00:54 9.3 °C 8.1 °C 995.1 hPa SW 10.8 km/h 17.7 km/h 89% 0 mm 0 W/m2
00:59 9.3 °C 8.1 °C 995.1 hPa SW 10.3 km/h 19.3 km/h 89% 0 mm 0 W/m2
01:04 9.2 °C 8 °C 995.1 hPa SW 10.3 km/h 19.3 km/h 89% 0 mm 0 W/m2
01:09 9.1 °C 7.9 °C 995.1 hPa SW 7.9 km/h 19.3 km/h 89% 0 mm 0 W/m2
01:14 9.1 °C 7.8 °C 995.1 hPa SW 10.9 km/h 19.3 km/h 88.4% 0 mm 0 W/m2
01:19 9.1 °C 7.7 °C 995.1 hPa SW 6 km/h 19.3 km/h 88% 0 mm 0 W/m2
01:24 8.9 °C 7.5 °C 995.1 hPa SSW 9 km/h 16.1 km/h 88% 0 mm 0 W/m2
01:29 8.9 °C 7.6 °C 995.1 hPa SSW 4.5 km/h 12.9 km/h 88.6% 0 mm 0 W/m2
01:34 8.8 °C 7.5 °C 994.8 hPa SSW 5.6 km/h 11.3 km/h 88.4% 0 mm 0 W/m2
01:39 8.8 °C 7.6 °C 994.8 hPa SSW 7.7 km/h 12.9 km/h 88.8% 0 mm 0 W/m2
01:44 8.8 °C 7.6 °C 995.1 hPa SW 5.8 km/h 11.3 km/h 89% 0 mm 0 W/m2
01:49 8.8 °C 7.6 °C 995.1 hPa SW 7.7 km/h 17.7 km/h 89% 0 mm 0 W/m2
01:54 8.7 °C 7.5 °C 995.1 hPa SW 7.2 km/h 12.9 km/h 89% 0 mm 0 W/m2
01:59 8.7 °C 7.5 °C 995.1 hPa SSW 5.1 km/h 11.3 km/h 89% 0 mm 0 W/m2
01:04 8.6 °C 7.4 °C 995.1 hPa SW 7.1 km/h 12.9 km/h 89% 0 mm 0 W/m2
01:09 8.6 °C 7.4 °C 995.1 hPa SSW 4.2 km/h 12.9 km/h 89% 0 mm 0 W/m2
01:14 8.6 °C 7.3 °C 995.1 hPa SW 7.4 km/h 14.5 km/h 89% 0 mm 0 W/m2
01:19 8.6 °C 7.4 °C 995.1 hPa SSW 6.4 km/h 14.5 km/h 89% 0 mm 0 W/m2
01:24 8.6 °C 7.4 °C 995.1 hPa SSW 5.8 km/h 14.5 km/h 89% 0 mm 0 W/m2
01:29 8.6 °C 7.4 °C 995.1 hPa SW 6 km/h 11.3 km/h 89% 0 mm 0 W/m2
01:34 8.6 °C 7.3 °C 995.1 hPa SW 5.8 km/h 12.9 km/h 88.2% 0 mm 0 W/m2
01:39 8.6 °C 7.2 °C 995.1 hPa SW 5.6 km/h 11.3 km/h 88% 0 mm 0 W/m2
01:44 8.6 °C 7.2 °C 995.1 hPa SW 5.3 km/h 11.3 km/h 88% 0 mm 0 W/m2
01:49 8.4 °C 7.1 °C 995.1 hPa SSW 5.3 km/h 11.3 km/h 88% 0 mm 0 W/m2
01:54 8.5 °C 7.1 °C 995.1 hPa SSW 5.8 km/h 11.3 km/h 88% 0 mm 0 W/m2
01:59 8.7 °C 7.2 °C 994.8 hPa SW 6.6 km/h 17.7 km/h 88% 0 mm 0 W/m2
02:04 8.7 °C 7.3 °C 994.8 hPa SW 6 km/h 12.9 km/h 88% 0 mm 0 W/m2
02:09 8.8 °C 7.3 °C 994.8 hPa SW 7.6 km/h 14.5 km/h 87.4% 0 mm 0 W/m2
02:14 8.9 °C 7.3 °C 994.8 hPa SW 7.9 km/h 16.1 km/h 87% 0 mm 0 W/m2
02:19 9 °C 7.4 °C 994.5 hPa SW 7.9 km/h 16.1 km/h 86.8% 0 mm 0 W/m2
02:24 9.1 °C 7.4 °C 994.5 hPa SSW 7.7 km/h 12.9 km/h 86% 0 mm 0 W/m2
02:29 9.1 °C 7.4 °C 994.5 hPa SW 7.4 km/h 16.1 km/h 86% 0 mm 0 W/m2
02:34 9.2 °C 7.4 °C 994.5 hPa SSW 5.3 km/h 16.1 km/h 85.6% 0 mm 0 W/m2
02:39 9.2 °C 7.3 °C 994.5 hPa SW 7.7 km/h 12.9 km/h 85% 0 mm 0 W/m2
02:44 9.2 °C 7.3 °C 994.5 hPa SW 5.1 km/h 11.3 km/h 85% 0 mm 0 W/m2
02:49 9.2 °C 7.3 °C 994.1 hPa SW 9.2 km/h 12.9 km/h 85% 0 mm 0 W/m2
02:54 9.3 °C 7.4 °C 994.1 hPa SW 4.8 km/h 11.3 km/h 85% 0 mm 0 W/m2
02:59 9.2 °C 7.2 °C 994.1 hPa SSW 4.7 km/h 12.9 km/h 84.2% 0 mm 0 W/m2
03:04 9.2 °C 7.2 °C 994.5 hPa SW 8.2 km/h 16.1 km/h 84.2% 0 mm 0 W/m2
03:09 9.2 °C 7.2 °C 994.5 hPa SW 7.9 km/h 17.7 km/h 84% 0 mm 0 W/m2
03:14 9.3 °C 7.2 °C 994.5 hPa SW 7.1 km/h 17.7 km/h 83.4% 0 mm 0 W/m2
03:19 9.3 °C 7.1 °C 994.5 hPa SW 6.9 km/h 11.3 km/h 83% 0 mm 0 W/m2
03:24 9.3 °C 7.1 °C 994.5 hPa SW 6.8 km/h 12.9 km/h 83% 0 mm 0 W/m2
03:29 9.2 °C 7 °C 994.5 hPa SW 5.6 km/h 12.9 km/h 83% 0 mm 0 W/m2
03:34 9.2 °C 7 °C 994.5 hPa SSW 3.2 km/h 12.9 km/h 83% 0 mm 0 W/m2
03:39 9.2 °C 7.1 °C 994.5 hPa SSW 6 km/h 12.9 km/h 84% 0 mm 0 W/m2
03:44 9.1 °C 7 °C 994.5 hPa SSW 6.1 km/h 11.3 km/h 84% 0 mm 0 W/m2
03:49 9.1 °C 6.9 °C 994.5 hPa SSW 5.1 km/h 12.9 km/h 84% 0 mm 0 W/m2
03:54 9 °C 7 °C 994.5 hPa South 5.1 km/h 12.9 km/h 84.4% 0 mm 0 W/m2
03:59 9 °C 7.1 °C 994.5 hPa SSW 7.4 km/h 17.7 km/h 85% 0 mm 0 W/m2
04:04 8.9 °C 6.9 °C 994.5 hPa SW 5.8 km/h 9.7 km/h 84.4% 0 mm 0 W/m2
04:09 8.9 °C 6.8 °C 994.5 hPa SW 1 km/h 6.4 km/h 84% 0 mm 0 W/m2
04:14 8.9 °C 6.8 °C 994.1 hPa SW 5 km/h 14.5 km/h 84% 0 mm 0 W/m2
04:19 8.9 °C 6.8 °C 994.1 hPa SW 2.6 km/h 6.4 km/h 84% 0 mm 0 W/m2
04:24 8.8 °C 6.7 °C 994.1 hPa SW 4.7 km/h 11.3 km/h 84% 0 mm 0 W/m2
04:29 8.7 °C 6.7 °C 994.1 hPa SW 1.3 km/h 11.3 km/h 84% 0 mm 0 W/m2
04:34 8.7 °C 6.6 °C 994.1 hPa SSW 4 km/h 19.3 km/h 84% 0 mm 0 W/m2
04:39 8.7 °C 6.6 °C 994.1 hPa SSW 4.5 km/h 12.9 km/h 84% 0 mm 0 W/m2
04:44 8.6 °C 6.5 °C 994.1 hPa SSW 4.5 km/h 12.9 km/h 84% 0 mm 0 W/m2
04:49 8.7 °C 6.6 °C 994.1 hPa SSW 7.7 km/h 14.5 km/h 84% 0 mm 0 W/m2
04:54 8.7 °C 6.6 °C 994.1 hPa SSW 5.1 km/h 12.9 km/h 84% 0 mm 0 W/m2
04:59 8.7 °C 6.6 °C 994.1 hPa SSW 7.7 km/h 14.5 km/h 84% 0 mm 0 W/m2
05:04 8.7 °C 6.6 °C 994.1 hPa SW 8.4 km/h 14.5 km/h 84% 0 mm 0 W/m2
05:09 8.7 °C 6.6 °C 994.5 hPa SSW 9.2 km/h 14.5 km/h 84% 0 mm 0 W/m2
05:14 8.8 °C 6.7 °C 994.5 hPa SW 7.7 km/h 12.9 km/h 84% 0 mm 0 W/m2
05:19 8.8 °C 6.7 °C 994.1 hPa South 5.5 km/h 12.9 km/h 84% 0 mm 0 W/m2
05:24 8.8 °C 6.7 °C 994.5 hPa SSW 6 km/h 12.9 km/h 84% 0 mm 0 W/m2
05:29 8.8 °C 6.8 °C 994.1 hPa SW 7.7 km/h 14.5 km/h 84% 0 mm 0 W/m2
05:34 8.9 °C 6.8 °C 994.1 hPa SW 6.8 km/h 16.1 km/h 84% 0 mm 0 W/m2
05:39 8.9 °C 6.8 °C 994.5 hPa SW 6.4 km/h 16.1 km/h 84% 0 mm 0 W/m2
05:44 9 °C 6.9 °C 994.5 hPa SW 9.7 km/h 16.1 km/h 84% 0 mm 0 W/m2
05:49 9.1 °C 6.9 °C 994.1 hPa SW 6.3 km/h 11.3 km/h 84% 0 mm 0 W/m2
05:54 9.1 °C 6.8 °C 994.1 hPa SW 4.7 km/h 14.5 km/h 83% 0 mm 0 W/m2
05:59 9.1 °C 6.8 °C 994.1 hPa SW 7.2 km/h 16.1 km/h 83% 0 mm 0 W/m2
06:04 9.1 °C 6.9 °C 994.1 hPa SW 8.7 km/h 14.5 km/h 83% 0 mm 0 W/m2
06:09 9.1 °C 6.9 °C 994.1 hPa SW 7.2 km/h 14.5 km/h 83% 0 mm 0 W/m2
06:14 9.1 °C 6.8 °C 994.1 hPa SW 7.6 km/h 12.9 km/h 82.2% 0 mm 0 W/m2
06:19 9.1 °C 6.7 °C 994.1 hPa SW 7.7 km/h 16.1 km/h 82% 0 mm 0 W/m2
06:24 9.1 °C 6.7 °C 994.1 hPa SW 8.4 km/h 19.3 km/h 82% 0 mm 0 W/m2
06:29 9.1 °C 6.7 °C 994.1 hPa SW 6 km/h 17.7 km/h 82% 0 mm 0 W/m2
06:34 9.1 °C 6.7 °C 994.1 hPa WNW 5.5 km/h 12.9 km/h 82% 0 mm 0 W/m2
06:39 9.1 °C 6.7 °C 994.1 hPa WNW 3.2 km/h 9.7 km/h 82% 0 mm 0 W/m2
06:44 9 °C 6.7 °C 994.5 hPa WNW 2.7 km/h 9.7 km/h 82.4% 0 mm 0 W/m2
06:49 8.9 °C 6.7 °C 994.5 hPa WNW 1.9 km/h 6.4 km/h 83% 0 mm 0 W/m2
06:54 8.9 °C 6.7 °C 994.5 hPa WNW 2.9 km/h 9.7 km/h 83% 0 mm 0 W/m2
06:59 8.8 °C 6.6 °C 994.8 hPa West 1.9 km/h 9.7 km/h 83% 0 mm 5 W/m2
07:04 8.7 °C 6.5 °C 994.8 hPa WSW 1 km/h 6.4 km/h 83% 0 mm 5 W/m2
07:09 8.7 °C 6.6 °C 994.8 hPa WSW 3.4 km/h 8 km/h 83.4% 0 mm 7 W/m2
07:14 8.8 °C 6.7 °C 994.8 hPa SSW 2.3 km/h 8 km/h 84% 0 mm 9 W/m2
07:19 8.8 °C 6.7 °C 994.8 hPa SSW 1.9 km/h 6.4 km/h 84% 0 mm 12 W/m2
07:24 8.8 °C 6.7 °C 995.1 hPa SSW 1.9 km/h 6.4 km/h 84% 0 mm 16 W/m2
07:29 8.7 °C 6.6 °C 994.8 hPa SSW 0.3 km/h 4.8 km/h 84% 0 mm 26 W/m2
07:34 8.7 °C 6.6 °C 995.1 hPa Calm     84% 0 mm 53 W/m2
07:39 8.7 °C 6.6 °C 995.1 hPa SSW 3.9 km/h 8 km/h 84% 0 mm 63 W/m2
07:44 8.8 °C 6.8 °C 995.1 hPa Calm   4.8 km/h 84% 0 mm 47 W/m2
07:49 8.9 °C 7 °C 995.1 hPa Calm     85% 0 mm 51 W/m2
07:54 9.1 °C 7.2 °C 995.1 hPa Calm     85% 0 mm 33 W/m2
07:59 9.1 °C 7.2 °C 995.1 hPa SSW 0.6 km/h 3.2 km/h 85% 0 mm 14 W/m2
08:04 8.9 °C 7.1 °C 995.5 hPa SW 3.2 km/h 8 km/h 85% 0 mm 18 W/m2
08:09 8.8 °C 6.9 °C 995.5 hPa WNW 2.3 km/h 9.7 km/h 85% 0 mm 18 W/m2
08:14 8.8 °C 6.9 °C 995.5 hPa Calm   3.2 km/h 85% 0 mm 19 W/m2
08:19 8.8 °C 6.9 °C 995.5 hPa SSW 1.9 km/h 6.4 km/h 85% 0 mm 19 W/m2
08:24 8.7 °C 6.8 °C 995.1 hPa SSW 3.5 km/h 6.4 km/h 85% 0 mm 25 W/m2
08:29 8.7 °C 6.8 °C 995.1 hPa SSW 4 km/h 8 km/h 85% 0 mm 90 W/m2
08:34 8.8 °C 6.8 °C 995.5 hPa SSW 3.4 km/h 8 km/h 85% 0 mm 90 W/m2
08:39 8.8 °C 6.9 °C 995.5 hPa SSW 1.9 km/h 8 km/h 85% 0 mm 65 W/m2
08:44 8.9 °C 7 °C 995.5 hPa SSW 2.9 km/h 8 km/h 85% 0 mm 86 W/m2
08:49 9 °C 7.1 °C 995.5 hPa SW 2.9 km/h 8 km/h 85% 0 mm 141 W/m2
08:54 9.3 °C 7.4 °C 995.5 hPa SW 2.1 km/h 6.4 km/h 85% 0 mm 176 W/m2
08:59 9.7 °C 7.6 °C 995.5 hPa SW 3.7 km/h 9.7 km/h 84% 0 mm 186 W/m2
09:04 9.8 °C 7.4 °C 995.5 hPa WSW 4.7 km/h 9.7 km/h 83% 0 mm 193 W/m2
09:09 9.8 °C 7.5 °C 995.5 hPa WSW 5.5 km/h 11.3 km/h 82.4% 0 mm 220 W/m2
09:14 9.9 °C 7.6 °C 995.5 hPa SW 6.4 km/h 9.7 km/h 82% 0 mm 302 W/m2
09:19 10.2 °C 7.8 °C 995.1 hPa WSW 5.8 km/h 9.7 km/h 82% 0 mm 260 W/m2
09:24 10.3 °C 7.9 °C 995.1 hPa SW 4 km/h 11.3 km/h 82% 0 mm 292 W/m2
09:29 10.4 °C 7.9 °C 995.1 hPa SW 7.4 km/h 12.9 km/h 82% 0 mm 283 W/m2
09:34 10.6 °C 8.1 °C 995.1 hPa SSW 7.9 km/h 20.9 km/h 81.2% 0 mm 304 W/m2
09:39 10.7 °C 8 °C 995.1 hPa SW 7.9 km/h 16.1 km/h 80.4% 0 mm 295 W/m2
09:44 10.8 °C 8.1 °C 995.1 hPa SW 6.4 km/h 14.5 km/h 80.2% 0 mm 248 W/m2
09:49 11.2 °C 8.4 °C 995.1 hPa SW 5.8 km/h 11.3 km/h 80.4% 0 mm 257 W/m2
09:54 11.1 °C 8.2 °C 995.1 hPa SSW 9.7 km/h 17.7 km/h 79.4% 0 mm 258 W/m2
09:59 11.1 °C 8.1 °C 995.1 hPa SW 7.7 km/h 17.7 km/h 79% 0 mm 278 W/m2
10:04 11.3 °C 8.3 °C 995.1 hPa SSW 5.8 km/h 14.5 km/h 79% 0 mm 292 W/m2
10:09 11.4 °C 8.4 °C 995.1 hPa SSW 8.5 km/h 14.5 km/h 79% 0 mm 295 W/m2
10:14 11.5 °C 8.3 °C 995.1 hPa SSW 8.4 km/h 16.1 km/h 78% 0 mm 272 W/m2
10:19 11.5 °C 8.3 °C 995.1 hPa SSW 6.6 km/h 16.1 km/h 78.2% 0 mm 301 W/m2
10:24 11.8 °C 8.6 °C 995.1 hPa SW 3.7 km/h 12.9 km/h 78.2% 0 mm 290 W/m2
10:29 11.8 °C 8.5 °C 995.1 hPa West 7.9 km/h 17.7 km/h 77.4% 0 mm 278 W/m2
10:34 11.6 °C 8.2 °C 995.1 hPa WSW 6.4 km/h 16.1 km/h 77.2% 0 mm 267 W/m2
10:39 11.7 °C 8.4 °C 995.1 hPa SW 5.3 km/h 16.1 km/h 77.6% 0 mm 269 W/m2
10:44 11.8 °C 8.4 °C 995.1 hPa SSW 7.4 km/h 12.9 km/h 77% 0 mm 301 W/m2
10:49 11.7 °C 8.2 °C 995.1 hPa SW 9.7 km/h 16.1 km/h 76.2% 0 mm 338 W/m2
10:54 11.6 °C 8 °C 995.1 hPa WSW 7.9 km/h 19.3 km/h 76% 0 mm 383 W/m2
10:59 12.1 °C 8.6 °C 995.1 hPa WSW 4.8 km/h 11.3 km/h 76.8% 0 mm 387 W/m2
11:04 12.5 °C 8.7 °C 995.1 hPa SW 5.3 km/h 14.5 km/h 75.2% 0 mm 392 W/m2
11:09 12.3 °C 8.3 °C 995.1 hPa WSW 7.7 km/h 20.9 km/h 74% 0 mm 417 W/m2
11:14 12.5 °C 8.5 °C 995.1 hPa SSW 6.6 km/h 20.9 km/h 74% 0 mm 432 W/m2
11:19 12.7 °C 8.5 °C 994.8 hPa SW 15 km/h 20.9 km/h 73.5% 0 mm 392 W/m2
11:24 12.4 °C 8.2 °C 994.8 hPa SSW 10.6 km/h 20.9 km/h 72.8% 0 mm 397 W/m2
11:29 12.6 °C 8.3 °C 994.8 hPa SW 6.3 km/h 19.3 km/h 72.8% 0 mm 404 W/m2
11:34 12.8 °C 8.4 °C 994.8 hPa SSW 7.7 km/h 19.3 km/h 72% 0 mm 424 W/m2
11:39 12.8 °C 8.4 °C 994.8 hPa SW 9.8 km/h 17.7 km/h 71.8% 0 mm 499 W/m2
11:44 12.7 °C 8.3 °C 994.8 hPa SW 10.8 km/h 20.9 km/h 72% 0 mm 534 W/m2
11:49 12.4 °C 8.1 °C 994.8 hPa SW 12.9 km/h 17.7 km/h 72.4% 0 mm 575 W/m2
11:54 12.7 °C 8.4 °C 994.8 hPa SW 9.3 km/h 22.5 km/h 72.6% 0 mm 531 W/m2
11:59 12.7 °C 8.3 °C 994.8 hPa SW 12.6 km/h 22.5 km/h 72% 0 mm 596 W/m2
12:04 12.7 °C 8.3 °C 994.5 hPa SSW 9 km/h 20.9 km/h 72.2% 0 mm 522 W/m2
12:09 12.7 °C 8.2 °C 994.5 hPa SW 8.5 km/h 17.7 km/h 71.8% 0 mm 439 W/m2
12:14 12.8 °C 8.4 °C 994.5 hPa SSW 12.6 km/h 17.7 km/h 71.8% 0 mm 468 W/m2
12:19 12.8 °C 8.2 °C 994.5 hPa SW 10.5 km/h 20.9 km/h 71% 0 mm 452 W/m2
12:24 12.7 °C 7.9 °C 994.5 hPa SW 9.7 km/h 17.7 km/h 70.4% 0 mm 455 W/m2
12:29 12.9 °C 8.2 °C 994.1 hPa SSW 9 km/h 17.7 km/h 70.8% 0 mm 441 W/m2
12:34 13.2 °C 8.4 °C 994.1 hPa WSW 7.6 km/h 17.7 km/h 70.5% 0 mm 438 W/m2
12:39 13.1 °C 8.2 °C 994.5 hPa WSW 10.6 km/h 25.7 km/h 70.2% 0 mm 454 W/m2
12:44 13 °C 8.2 °C 994.1 hPa WSW 12.6 km/h 20.9 km/h 70.4% 0 mm 487 W/m2
12:49 12.7 °C 7.8 °C 994.1 hPa WSW 11.9 km/h 20.9 km/h 70% 0 mm 221 W/m2
12:54 12.7 °C 7.9 °C 994.1 hPa SW 10.1 km/h 22.5 km/h 70.4% 0 mm 120 W/m2
12:59 12.6 °C 7.9 °C 994.1 hPa West 10.6 km/h 19.3 km/h 70.6% 0 mm 97 W/m2
13:04 12.4 °C 7.8 °C 994.1 hPa WSW 6.1 km/h 14.5 km/h 71% 0 mm 134 W/m2
13:09 12.4 °C 7.9 °C 994.1 hPa WSW 12.9 km/h 17.7 km/h 71.2% 0 mm 547 W/m2
13:14 12.6 °C 7.9 °C 994.1 hPa WSW 10.6 km/h 17.7 km/h 70.6% 0 mm 206 W/m2
13:19 12.7 °C 7.8 °C 994.1 hPa SW 6.8 km/h 12.9 km/h 70.2% 0 mm 102 W/m2
13:24 12.6 °C 7.6 °C 994.1 hPa SW 11.7 km/h 16.1 km/h 69.5% 0 mm 134 W/m2
13:29 12.4 °C 7.7 °C 993.8 hPa SW 6.6 km/h 16.1 km/h 70.2% 0 mm 236 W/m2
13:34 12.6 °C 7.8 °C 994.1 hPa SW 11.3 km/h 19.3 km/h 70% 0 mm 220 W/m2
13:39 12.7 °C 7.7 °C 994.1 hPa WSW 14.6 km/h 20.9 km/h 69.2% 0 mm 406 W/m2
13:44 12.8 °C 7.6 °C 994.1 hPa SW 12.2 km/h 27.4 km/h 68.2% 0 mm 183 W/m2
13:49 12.6 °C 7.3 °C 994.1 hPa WSW 13.8 km/h 27.4 km/h 68% 0 mm 91 W/m2
13:54 12.3 °C 7.1 °C 994.1 hPa WSW 16.9 km/h 25.7 km/h 68.2% 0 mm 229 W/m2
13:59 12.2 °C 7.2 °C 994.1 hPa WSW 14.2 km/h 22.5 km/h 69% 0 mm 348 W/m2
14:04 12.3 °C 7.4 °C 994.1 hPa WSW 9.7 km/h 17.7 km/h 69.8% 0 mm 294 W/m2
14:09 12.4 °C 7.6 °C 993.8 hPa West 8.4 km/h 17.7 km/h 70% 0 mm 197 W/m2
14:14 12.3 °C 7.6 °C 993.8 hPa WSW 7.1 km/h 17.7 km/h 70% 0 mm 125 W/m2
14:19 12.3 °C 7.5 °C 993.8 hPa SW 8.2 km/h 14.5 km/h 70% 0 mm 213 W/m2
14:23 12.3 °C 7.7 °C 993.8 hPa WSW 8.7 km/h 14.5 km/h 71% 0 mm 360 W/m2
14:29 12.3 °C 7.8 °C 993.8 hPa SW 6.8 km/h 11.3 km/h 71% 0 mm 105 W/m2
14:34 12.2 °C 7.7 °C 993.8 hPa WSW 6.3 km/h 11.3 km/h 71.8% 0 mm 60 W/m2
14:39 12.1 °C 7.8 °C 993.8 hPa SW 7.1 km/h 11.3 km/h 72.8% 0 mm 100 W/m2
14:44 12.1 °C 7.9 °C 993.8 hPa WSW 4.7 km/h 11.3 km/h 73.2% 0 mm 272 W/m2
14:49 12.3 °C 8.2 °C 993.8 hPa WSW 8 km/h 12.9 km/h 73.8% 0 mm 366 W/m2
14:54 12.4 °C 8.3 °C 993.8 hPa SW 9 km/h 16.1 km/h 73.4% 0 mm 329 W/m2
14:59 12.5 °C 8.4 °C 993.8 hPa SW 6.8 km/h 14.5 km/h 73.4% 0 mm 237 W/m2
15:04 12.6 °C 8.5 °C 993.8 hPa SW 10.3 km/h 20.9 km/h 73.6% 0 mm 120 W/m2
15:09 12.3 °C 8.1 °C 993.8 hPa SW 10.3 km/h 20.9 km/h 73% 0 mm 47 W/m2
15:14 12 °C 7.8 °C 993.8 hPa WSW 10 km/h 20.9 km/h 73% 0 mm 44 W/m2
15:19 11.8 °C 7.4 °C 993.8 hPa WSW 10.6 km/h 17.7 km/h 72.2% 0 mm 53 W/m2
15:24 11.7 °C 7.3 °C 993.8 hPa WSW 10.3 km/h 17.7 km/h 72.2% 0 mm 111 W/m2
15:29 11.7 °C 7.4 °C 994.1 hPa SW 8 km/h 17.7 km/h 72.8% 0 mm 188 W/m2
15:34 11.8 °C 7.7 °C 994.1 hPa WSW 9.5 km/h 12.9 km/h 73% 0 mm 195 W/m2
15:39 11.9 °C 7.5 °C 994.1 hPa WSW 9.7 km/h 17.7 km/h 72% 0 mm 192 W/m2
15:44 11.9 °C 7.6 °C 994.1 hPa WSW 7.7 km/h 16.1 km/h 72% 0 mm 190 W/m2
15:49 12 °C 7.4 °C 994.1 hPa WSW 10.1 km/h 19.3 km/h 71.2% 0 mm 128 W/m2
15:54 11.8 °C 7.2 °C 994.5 hPa SW 10.1 km/h 16.1 km/h 71% 0 mm 62 W/m2
15:59 11.7 °C 7.2 °C 994.5 hPa SW 10.6 km/h 16.1 km/h 71.8% 0 mm 39 W/m2
16:04 11.6 °C 7.2 °C 994.5 hPa SW 9 km/h 19.3 km/h 72% 0 mm 30 W/m2
16:09 11.5 °C 7.1 °C 994.5 hPa WSW 5.3 km/h 17.7 km/h 72% 0 mm 21 W/m2
16:14 11.4 °C 7.2 °C 994.5 hPa WSW 3.9 km/h 11.3 km/h 72.8% 0 mm 18 W/m2
16:19 11.3 °C 7.1 °C 994.5 hPa West 4.7 km/h 8 km/h 73% 0 mm 18 W/m2
16:24 11.2 °C 7.2 °C 994.5 hPa WSW 5.1 km/h 11.3 km/h 73.8% 0 mm 19 W/m2
16:29 11.1 °C 7.1 °C 994.5 hPa West 2.7 km/h 8 km/h 74% 0 mm 19 W/m2
16:34 11.1 °C 7.1 °C 994.5 hPa West 2.7 km/h 4.8 km/h 74% 0 mm 19 W/m2
16:39 11.1 °C 7.3 °C 994.5 hPa SW 7.7 km/h 16.1 km/h 75% 0 mm 16 W/m2
16:44 10.9 °C 7.1 °C 994.5 hPa SW 6.1 km/h 11.3 km/h 75% 0 mm 11 W/m2
16:49 10.8 °C 7.1 °C 994.1 hPa SW 6.8 km/h 12.9 km/h 75.4% 0 mm 7 W/m2
16:54 10.8 °C 7.1 °C 994.1 hPa SW 6.8 km/h 16.1 km/h 75.4% 0 mm 5 W/m2
16:59 10.8 °C 7 °C 994.1 hPa WSW 6.4 km/h 11.3 km/h 75% 0 mm 0 W/m2
17:04 10.8 °C 6.8 °C 994.1 hPa SW 7.1 km/h 12.9 km/h 74.4% 0 mm 0 W/m2
17:09 10.7 °C 6.7 °C 994.1 hPa SW 6 km/h 9.7 km/h 74% 0 mm 0 W/m2
17:14 10.7 °C 6.7 °C 994.1 hPa WSW 3.9 km/h 11.3 km/h 74% 0 mm 0 W/m2
17:19 10.7 °C 6.7 °C 994.1 hPa SW 5 km/h 11.3 km/h 74% 0 mm 0 W/m2
17:24 10.6 °C 6.6 °C 994.5 hPa SW 4.5 km/h 8 km/h 74% 0 mm 0 W/m2
17:29 10.5 °C 6.5 °C 994.5 hPa WSW 1.9 km/h 6.4 km/h 74% 0 mm 0 W/m2
17:34 10.4 °C 6.6 °C 994.5 hPa WSW 1.3 km/h 8 km/h 74.8% 0 mm 0 W/m2
17:39 10.3 °C 6.6 °C 994.5 hPa WSW 4 km/h 9.7 km/h 75% 0 mm 0 W/m2
17:44 10.3 °C 6.5 °C 994.5 hPa WSW 3.9 km/h 9.7 km/h 75% 0 mm 0 W/m2
17:49 10.2 °C 6.6 °C 994.8 hPa SW 3.9 km/h 9.7 km/h 75.6% 0 mm 0 W/m2
17:54 10.2 °C 6.6 °C 994.8 hPa SW 6.6 km/h 9.7 km/h 76% 0 mm 0 W/m2
17:59 10.2 °C 6.6 °C 994.8 hPa SW 6.6 km/h 12.9 km/h 76% 0 mm 0 W/m2
18:04 10.1 °C 6.6 °C 994.8 hPa SW 6.4 km/h 12.9 km/h 76.5% 0 mm 0 W/m2
18:09 10.1 °C 6.7 °C 994.8 hPa WSW 6.4 km/h 14.5 km/h 77% 0 mm 0 W/m2
18:14 10.1 °C 6.7 °C 994.8 hPa SW 4.7 km/h 9.7 km/h 77% 0 mm 0 W/m2
18:19 10 °C 6.6 °C 994.8 hPa SW 4 km/h 8 km/h 77% 0 mm 0 W/m2
18:24 9.9 °C 6.5 °C 994.8 hPa SW 3.2 km/h 12.9 km/h 77% 0 mm 0 W/m2
18:29 9.8 °C 6.4 °C 994.8 hPa SW 3.4 km/h 12.9 km/h 77% 0 mm 0 W/m2
18:34 9.7 °C 6.3 °C 994.8 hPa SW 5.3 km/h 11.3 km/h 77% 0 mm 0 W/m2
18:39 9.6 °C 6.3 °C 994.8 hPa SW 4.8 km/h 11.3 km/h 77.4% 0 mm 0 W/m2
18:44 9.5 °C 6.3 °C 995.1 hPa SW 7.1 km/h 11.3 km/h 77.8% 0 mm 0 W/m2
18:49 9.3 °C 6.2 °C 995.1 hPa SW 5.6 km/h 11.3 km/h 78% 0 mm 0 W/m2
18:54 9.3 °C 6.1 °C 995.1 hPa SW 7.2 km/h 12.9 km/h 78% 0 mm 0 W/m2
18:59 9.2 °C 6.2 °C 994.8 hPa SW 7.6 km/h 12.9 km/h 78.8% 0 mm 0 W/m2
19:04 9.1 °C 6.1 °C 994.8 hPa SW 9.8 km/h 14.5 km/h 79% 0 mm 0 W/m2
19:09 9.1 °C 6.2 °C 994.8 hPa SW 5.1 km/h 11.3 km/h 79.6% 0 mm 0 W/m2
19:14 8.9 °C 6.2 °C 995.1 hPa SW 3.5 km/h 9.7 km/h 80% 0 mm 0 W/m2
19:19 8.9 °C 6.1 °C 995.1 hPa WSW 3.4 km/h 8 km/h 80% 0 mm 0 W/m2
19:24 8.8 °C 6.1 °C 995.1 hPa WSW 1 km/h 4.8 km/h 80.4% 0 mm 0 W/m2
19:29 8.7 °C 6.1 °C 995.1 hPa West 1.3 km/h 8 km/h 81% 0 mm 0 W/m2
19:34 8.6 °C 6.1 °C 995.1 hPa WSW 1 km/h 4.8 km/h 81.2% 0 mm 0 W/m2
19:39 8.6 °C 6.1 °C 995.1 hPa WSW 0.6 km/h 4.8 km/h 81.6% 0 mm 0 W/m2
19:44 8.6 °C 6.2 °C 995.1 hPa WSW 0.6 km/h 6.4 km/h 82% 0 mm 0 W/m2
19:49 8.5 °C 6.1 °C 995.1 hPa Calm   1.6 km/h 82% 0 mm 0 W/m2
19:54 8.3 °C 5.9 °C 995.1 hPa WSW 2.3 km/h 6.4 km/h 82% 0 mm 0 W/m2
19:59 8.3 °C 6.1 °C 995.1 hPa SW 1.1 km/h 6.4 km/h 82.8% 0 mm 0 W/m2
20:04 8.4 °C 6.2 °C 995.1 hPa SW 4.2 km/h 6.4 km/h 83% 0 mm 0 W/m2
20:09 8.6 °C 6.3 °C 995.5 hPa WSW 4.7 km/h 9.7 km/h 83% 0 mm 0 W/m2
20:14 8.7 °C 6.4 °C 995.5 hPa WSW 5.1 km/h 9.7 km/h 83% 0 mm 0 W/m2
20:19 8.7 °C 6.5 °C 995.5 hPa WSW 4 km/h 9.7 km/h 83% 0 mm 0 W/m2
20:24 8.7 °C 6.5 °C 995.5 hPa SW 5.3 km/h 11.3 km/h 83% 0 mm 0 W/m2
20:29 8.6 °C 6.4 °C 995.5 hPa WSW 4 km/h 8 km/h 83% 0 mm 0 W/m2
20:34 8.6 °C 6.3 °C 995.5 hPa West 4.5 km/h 9.7 km/h 83% 0 mm 0 W/m2
20:39 8.4 °C 6.2 °C 995.1 hPa WSW 3.2 km/h 8 km/h 83.2% 0 mm 0 W/m2
20:44 8.3 °C 6.2 °C 995.1 hPa WSW 2.6 km/h 8 km/h 84% 0 mm 0 W/m2
20:49 8.2 °C 6.1 °C 995.1 hPa SW 1.3 km/h 8 km/h 84% 0 mm 0 W/m2
20:54 8.1 °C 6 °C 995.1 hPa SW 0.3 km/h 4.8 km/h 84% 0 mm 0 W/m2
20:59 7.9 °C 5.9 °C 995.1 hPa Calm   4.8 km/h 84% 0 mm 0 W/m2
21:04 7.8 °C 5.8 °C 995.5 hPa SW 1.3 km/h 6.4 km/h 84.6% 0 mm 0 W/m2
21:09 7.7 °C 5.8 °C 995.5 hPa SW 0.6 km/h 3.2 km/h 85% 0 mm 0 W/m2
21:14 7.6 °C 5.7 °C 995.5 hPa SW 2.6 km/h 4.8 km/h 85% 0 mm 0 W/m2
21:19 7.4 °C 5.6 °C 995.5 hPa Calm   3.2 km/h 85.4% 0 mm 0 W/m2
21:24 7.4 °C 5.7 °C 995.5 hPa Calm   3.2 km/h 86% 0 mm 0 W/m2
21:29 7.3 °C 5.6 °C 995.5 hPa Calm   3.2 km/h 86% 0 mm 0 W/m2
21:34 7.2 °C 5.6 °C 995.5 hPa SW 2.1 km/h 6.4 km/h 86% 0 mm 0 W/m2
21:39 7.3 °C 5.7 °C 995.5 hPa SW 3.1 km/h 6.4 km/h 86.4% 0 mm 0 W/m2
21:44 7.3 °C 5.8 °C 995.5 hPa SW 2.9 km/h 4.8 km/h 87% 0 mm 0 W/m2
21:49 7.2 °C 5.7 °C 995.5 hPa SW 3.7 km/h 4.8 km/h 87% 0 mm 0 W/m2
21:54 7.1 °C 5.6 °C 995.5 hPa SW 1.4 km/h 4.8 km/h 87% 0 mm 0 W/m2
21:59 7.1 °C 5.6 °C 995.5 hPa WSW 4.8 km/h 8 km/h 87% 0 mm 0 W/m2
22:04 7.1 °C 5.7 °C 995.1 hPa West 4 km/h 9.7 km/h 87.6% 0 mm 0 W/m2
22:09 7.1 °C 5.7 °C 995.1 hPa West 2.6 km/h 9.7 km/h 88% 0 mm 0 W/m2
22:14 7.1 °C 5.7 °C 995.1 hPa West 5.1 km/h 6.4 km/h 88% 0 mm 0 W/m2
22:19 7.1 °C 5.7 °C 995.1 hPa West 2.3 km/h 6.4 km/h 88% 0 mm 0 W/m2
22:24 7.1 °C 5.7 °C 995.1 hPa Calm   4.8 km/h 88% 0 mm 0 W/m2
22:29 7.1 °C 5.7 °C 995.5 hPa West 2.1 km/h 6.4 km/h 88% 0 mm 0 W/m2
22:34 6.9 °C 5.5 °C 995.5 hPa West 2.4 km/h 8 km/h 88% 0 mm 0 W/m2
22:39 6.9 °C 5.5 °C 995.5 hPa WNW 4.7 km/h 9.7 km/h 88% 0 mm 0 W/m2
22:44 6.8 °C 5.4 °C 995.1 hPa WNW 0.6 km/h 6.4 km/h 88% 0 mm 0 W/m2
22:49 6.8 °C 5.4 °C 995.1 hPa WNW 0.3 km/h 6.4 km/h 88% 0 mm 0 W/m2
22:54 6.7 °C 5.3 °C 995.1 hPa WNW 1 km/h 4.8 km/h 88% 0 mm 0 W/m2
22:59 6.7 °C 5.4 °C 995.5 hPa WNW 1.9 km/h 6.4 km/h 88.2% 0 mm 0 W/m2
23:04 6.8 °C 5.6 °C 995.1 hPa WNW 2.6 km/h 8 km/h 88.8% 0 mm 0 W/m2
23:09 6.8 °C 5.6 °C 995.1 hPa West 1.9 km/h 6.4 km/h 89% 0 mm 0 W/m2
23:14 6.8 °C 5.4 °C 995.5 hPa West 1 km/h 4.8 km/h 88.4% 0 mm 0 W/m2
23:19 6.8 °C 5.6 °C 995.5 hPa West 5.1 km/h 11.3 km/h 89% 0 mm 0 W/m2
23:24 6.8 °C 5.6 °C 995.5 hPa WNW 5.3 km/h 9.7 km/h 89% 0 mm 0 W/m2
23:29 6.8 °C 5.6 °C 995.5 hPa West 3.9 km/h 11.3 km/h 89% 0 mm 0 W/m2
23:34 6.8 °C 5.5 °C 995.5 hPa West 3.4 km/h 8 km/h 88.6% 0 mm 0 W/m2
23:39 6.7 °C 5.4 °C 995.5 hPa WNW 3.2 km/h 8 km/h 88.4% 0 mm 0 W/m2
23:44 6.7 °C 5.3 °C 995.5 hPa West 2.6 km/h 11.3 km/h 88% 0 mm 0 W/m2
23:49 6.7 °C 5.3 °C 995.5 hPa West 2.7 km/h 11.3 km/h 88.2% 0 mm 0 W/m2
23:54 6.7 °C 5.4 °C 995.5 hPa West 2.6 km/h 8 km/h 88.8% 0 mm 0 W/m2
23:59 6.7 °C 5.3 °C 995.5 hPa West 2.1 km/h 6.4 km/h 88.2% 0 mm 0 W/m2
Bath Spa Weather
Compliments of Weather Underground - 2 mb